Relatórios de METAR próximas

 

LPPR - Porto, Portugal, PT
Distance from station: N 52km
Actualizado: 24/01/2022 17:00
Céu Limpo
Céu Limpo
 Vento de NNW
Vento: NNW 11 km/h
Temperatura: 12°C
Ponto de Orvalho: 6°C
Humidade: 67%
Barómetro: 1026 hPa
Resumo: Céu Limpo
Visibilidade: greater than 10 km
2022/01/24 17:00 LPPR 241700Z 34006KT CAVOK 12/06 Q1026